createdAt,value
2023-11-28T00:00:32.974Z,16.63
2023-11-28T00:05:26.684Z,18.57
2023-11-28T00:07:53.336Z,16.73
2023-11-28T00:10:19.934Z,16.73
2023-11-28T00:15:13.094Z,17.27
2023-11-28T00:17:39.915Z,17.95
2023-11-28T00:20:07.424Z,17.75
2023-11-28T00:22:34.166Z,17.15
2023-11-28T00:25:00.999Z,19.05
2023-11-28T00:27:27.629Z,15.88
2023-11-28T00:29:54.196Z,17.38
2023-11-28T00:34:49.669Z,15.77
2023-11-28T00:37:16.489Z,17.80
2023-11-28T00:39:43.318Z,16.50
2023-11-28T00:42:10.154Z,18.30
2023-11-28T00:44:36.687Z,17.27
2023-11-28T00:49:30.016Z,16.40
2023-11-28T00:51:56.574Z,15.57
2023-11-28T00:56:51.242Z,15.68
2023-11-28T00:59:17.803Z,16.42
2023-11-28T01:04:11.744Z,15.27
2023-11-28T01:06:38.322Z,16.17
2023-11-28T01:13:59.016Z,18.00
2023-11-28T01:18:52.626Z,16.38
2023-11-28T01:23:45.645Z,17.75
2023-11-28T01:26:12.126Z,16.88
2023-11-28T01:31:06.566Z,16.10
2023-11-28T01:33:33.569Z,16.50
2023-11-28T01:36:00.186Z,17.92
2023-11-28T01:38:26.780Z,17.77
2023-11-28T01:43:29.876Z,14.23
2023-11-28T01:45:58.106Z,15.70
2023-11-28T01:48:24.928Z,15.77
2023-11-28T01:50:52.071Z,16.10
2023-11-28T01:53:19.173Z,15.95
2023-11-28T01:55:46.069Z,15.27
2023-11-28T01:58:13.276Z,15.23
2023-11-28T02:00:40.011Z,15.57
2023-11-28T02:03:10.275Z,12.98
2023-11-28T02:05:36.970Z,14.82
2023-11-28T02:10:35.078Z,14.48
2023-11-28T02:13:01.626Z,13.77
2023-11-28T02:18:11.618Z,12.75
2023-11-28T02:20:41.899Z,12.80
2023-11-28T02:23:09.608Z,14.23
2023-11-28T02:25:41.511Z,12.35
2023-11-28T02:28:08.037Z,12.30
2023-11-28T02:46:50.333Z,12.02
2023-11-28T02:49:16.960Z,11.18
2023-11-28T02:51:43.463Z,12.73
2023-11-28T02:56:36.481Z,11.05
2023-11-28T03:01:29.689Z,9.70
2023-11-28T03:03:56.978Z,10.63
2023-11-28T03:06:23.515Z,10.93
2023-11-28T03:11:16.448Z,10.30
2023-11-28T03:16:10.054Z,8.23
2023-11-28T03:18:36.576Z,8.98
2023-11-28T03:23:29.532Z,8.20
2023-11-28T03:28:23.860Z,7.28
2023-11-28T03:30:50.464Z,7.20
2023-11-28T03:33:17.113Z,6.57
2023-11-28T03:35:44.049Z,6.72
2023-11-28T03:38:10.892Z,8.13
2023-11-28T03:40:37.558Z,6.82
2023-11-28T03:43:04.211Z,6.63
2023-11-28T03:45:30.730Z,6.45
2023-11-28T03:50:23.731Z,5.47
2023-11-28T03:55:16.903Z,5.22
2023-11-28T04:00:11.520Z,4.95
2023-11-28T04:02:38.290Z,4.63
2023-11-28T04:05:07.733Z,4.85
2023-11-28T04:07:34.331Z,5.15
2023-11-28T04:12:27.792Z,5.00
2023-11-28T04:14:54.294Z,4.82
2023-11-28T04:19:47.800Z,4.43
2023-11-28T04:22:14.871Z,4.10
2023-11-28T04:24:41.596Z,4.00
2023-11-28T04:27:08.116Z,5.15
2023-11-28T04:32:01.390Z,4.43
2023-11-28T04:34:28.143Z,4.82
2023-11-28T04:36:55.088Z,4.13
2023-11-28T04:39:21.753Z,4.60
2023-11-28T04:41:54.130Z,4.18
2023-11-28T04:44:20.705Z,3.95
2023-11-28T04:46:47.284Z,4.22
2023-11-28T04:51:41.793Z,4.15
2023-11-28T04:56:35.401Z,3.65
2023-11-28T04:59:02.039Z,4.05
2023-11-28T05:01:28.588Z,3.53
2023-11-28T05:06:22.131Z,3.90
2023-11-28T05:08:48.980Z,3.10
2023-11-28T05:11:15.574Z,4.20
2023-11-28T05:13:48.272Z,4.07
2023-11-28T05:16:15.027Z,4.10
2023-11-28T05:18:41.780Z,4.10
2023-11-28T05:21:11.449Z,4.28
2023-11-28T05:23:39.690Z,3.65
2023-11-28T05:28:39.935Z,3.53
2023-11-28T05:31:06.671Z,4.07
2023-11-28T05:33:33.193Z,4.03
2023-11-28T05:38:26.121Z,4.72
2023-11-28T05:43:19.401Z,3.90
2023-11-28T05:45:45.891Z,4.80
2023-11-28T05:50:41.964Z,4.28
2023-11-28T05:55:34.974Z,4.65
2023-11-28T06:00:28.618Z,4.72
2023-11-28T06:02:55.332Z,5.28
2023-11-28T06:05:22.063Z,5.38
2023-11-28T06:07:49.014Z,5.55
2023-11-28T06:10:16.553Z,5.57
2023-11-28T06:12:43.128Z,5.28
2023-11-28T06:21:25.084Z,5.50
2023-11-28T06:26:18.264Z,6.18
2023-11-28T06:31:11.373Z,6.60
2023-11-28T06:33:37.972Z,6.78
2023-11-28T06:36:05.543Z,8.05
2023-11-28T06:38:35.908Z,7.47
2023-11-28T06:47:02.029Z,8.40
2023-11-28T06:47:55.687Z,6.72
2023-11-28T07:47:09.256Z,12.75
2023-11-28T07:49:36.124Z,13.60
2023-11-28T08:13:54.854Z,12.68
2023-11-28T08:16:24.704Z,13.55
2023-11-28T08:18:51.490Z,12.88
2023-11-28T08:21:19.573Z,13.13
2023-11-28T08:23:46.728Z,15.40
2023-11-28T08:26:13.349Z,13.88
2023-11-28T08:28:40.141Z,13.27
2023-11-28T08:31:10.471Z,13.68
2023-11-28T08:33:37.169Z,11.77
2023-11-28T08:36:04.263Z,13.05
2023-11-28T08:38:31.122Z,13.18
2023-11-28T08:41:03.441Z,13.07
2023-11-28T08:48:42.773Z,12.13
2023-11-28T08:55:13.144Z,11.10
2023-11-28T08:58:00.429Z,12.10
2023-11-28T09:00:46.026Z,11.70
2023-11-28T09:03:13.198Z,12.18
2023-11-28T09:05:48.829Z,10.85
2023-11-28T09:08:27.220Z,12.13
2023-11-28T09:18:22.022Z,10.68
2023-11-28T09:24:23.265Z,11.35
2023-11-28T09:26:59.929Z,10.55
2023-11-28T09:29:29.335Z,10.35
2023-11-28T09:35:02.584Z,11.68
2023-11-28T09:38:45.956Z,11.98
2023-11-28T09:41:12.780Z,11.38
2023-11-28T09:46:30.614Z,11.40
2023-11-28T09:46:54.968Z,12.32
2023-11-28T09:49:48.179Z,13.90
2023-11-28T09:52:35.509Z,12.10
2023-11-28T09:55:02.742Z,12.00
2023-11-28T09:57:35.581Z,13.32
2023-11-28T10:00:12.765Z,11.77
2023-11-28T10:02:43.215Z,11.93
2023-11-28T10:05:10.041Z,11.05
2023-11-28T10:07:37.110Z,11.68
2023-11-28T10:10:38.407Z,11.27
2023-11-28T10:13:10.733Z,11.57
2023-11-28T10:15:41.328Z,11.50
2023-11-28T10:22:09.546Z,13.00
2023-11-28T10:24:36.568Z,13.07
2023-11-28T10:30:40.238Z,12.13
2023-11-28T10:33:17.211Z,10.70
2023-11-28T10:35:46.208Z,12.77
2023-11-28T10:38:24.634Z,11.43
2023-11-28T10:40:59.712Z,10.60
2023-11-28T10:43:42.674Z,10.55
2023-11-28T10:46:22.173Z,11.35
2023-11-28T10:52:07.285Z,11.85
2023-11-28T10:54:40.003Z,11.90
2023-11-28T11:03:59.927Z,10.02
2023-11-28T11:06:27.669Z,12.10
2023-11-28T11:09:01.764Z,10.77
2023-11-28T11:11:36.053Z,10.98
2023-11-28T11:14:38.367Z,9.40
2023-11-28T11:17:27.316Z,11.30
2023-11-28T11:23:39.379Z,11.93
2023-11-28T11:26:06.911Z,10.82
2023-11-28T11:29:17.371Z,10.40
2023-11-28T11:32:33.313Z,9.82
2023-11-28T11:35:17.398Z,9.25
2023-11-28T11:38:17.538Z,9.35
2023-11-28T11:40:48.975Z,9.35
2023-11-28T11:43:31.416Z,10.10
2023-11-28T11:46:57.983Z,10.48
2023-11-28T11:49:25.204Z,9.77
2023-11-28T11:51:58.025Z,9.93
2023-11-28T11:54:29.498Z,8.93
2023-11-28T11:56:56.567Z,9.55
2023-11-28T11:59:30.731Z,8.65
2023-11-28T12:02:16.183Z,8.57
2023-11-28T12:05:07.514Z,9.25
2023-11-28T12:07:37.738Z,10.77
2023-11-28T12:10:39.645Z,8.73
2023-11-28T12:13:12.629Z,7.95
2023-11-28T12:15:42.799Z,7.40
2023-11-28T12:18:29.390Z,8.20
2023-11-28T12:20:59.859Z,7.45
2023-11-28T12:26:45.868Z,7.20
2023-11-28T12:29:47.088Z,7.25
2023-11-28T12:32:14.370Z,7.82
2023-11-28T12:34:57.180Z,8.15
2023-11-28T12:37:23.830Z,8.18
2023-11-28T12:39:54.947Z,7.28
2023-11-28T12:42:21.666Z,7.45
2023-11-28T12:44:49.807Z,6.82
2023-11-28T12:47:16.876Z,7.35
2023-11-28T12:49:43.933Z,8.13
2023-11-28T12:52:11.709Z,8.75
2023-11-28T12:54:52.799Z,8.32
2023-11-28T12:58:15.353Z,9.02
2023-11-28T13:00:42.452Z,7.72
2023-11-28T13:03:09.155Z,7.53
2023-11-28T13:05:42.303Z,8.52
2023-11-28T13:08:17.706Z,7.78
2023-11-28T13:10:45.252Z,9.32
2023-11-28T13:13:38.327Z,8.32
2023-11-28T13:16:05.660Z,8.80
2023-11-28T13:18:33.041Z,8.63
2023-11-28T13:21:52.314Z,8.85
2023-11-28T13:24:28.422Z,7.90
2023-11-28T13:26:55.402Z,7.88
2023-11-28T13:29:30.720Z,8.52
2023-11-28T13:31:59.978Z,7.97
2023-11-28T13:34:26.719Z,7.82
2023-11-28T13:36:53.504Z,7.68
2023-11-28T13:39:24.535Z,7.00
2023-11-28T13:41:57.504Z,7.55
2023-11-28T13:47:20.453Z,7.15
2023-11-28T13:47:20.821Z,8.38
2023-11-28T13:49:47.460Z,6.20
2023-11-28T13:52:14.350Z,6.32
2023-11-28T13:54:41.029Z,5.85
2023-11-28T13:57:09.005Z,6.28
2023-11-28T14:00:48.674Z,5.80
2023-11-28T14:03:46.621Z,5.15
2023-11-28T14:09:50.034Z,5.60
2023-11-28T14:12:36.811Z,5.28
2023-11-28T14:15:04.274Z,5.40
2023-11-28T14:17:31.227Z,6.07
2023-11-28T14:20:07.727Z,4.88
2023-11-28T14:26:14.935Z,7.18
2023-11-28T14:29:08.163Z,5.10
2023-11-28T14:32:07.393Z,5.22
2023-11-28T14:34:53.901Z,5.03
2023-11-28T14:37:21.014Z,5.32
2023-11-28T14:40:00.534Z,4.95
2023-11-28T14:42:28.054Z,4.18
2023-11-28T14:45:04.137Z,4.60
2023-11-28T14:54:55.521Z,5.18
2023-11-28T14:57:22.790Z,5.35
2023-11-28T14:59:52.440Z,5.38
2023-11-28T15:02:30.926Z,5.32
2023-11-28T15:05:41.597Z,4.88
2023-11-28T15:08:10.943Z,5.40
2023-11-28T15:10:40.034Z,4.85
2023-11-28T15:13:40.952Z,4.57
2023-11-28T15:16:08.879Z,4.20
2023-11-28T15:18:35.635Z,4.40
2023-11-28T15:21:10.818Z,4.80
2023-11-28T15:23:37.730Z,5.15
2023-11-28T15:26:05.116Z,5.97
2023-11-28T15:28:31.839Z,5.70
2023-11-28T15:31:18.858Z,5.60
2023-11-28T15:33:45.647Z,7.22
2023-11-28T15:36:13.946Z,7.00
2023-11-28T15:38:41.834Z,5.97
2023-11-28T15:41:08.806Z,5.93
2023-11-28T15:43:35.562Z,6.22
2023-11-28T15:46:02.144Z,6.35
2023-11-28T15:50:55.445Z,6.30
2023-11-28T15:53:22.175Z,5.78
2023-11-28T15:55:48.854Z,6.22
2023-11-28T15:58:21.059Z,6.15
2023-11-28T16:00:49.782Z,7.32
2023-11-28T16:03:18.856Z,6.63
2023-11-28T16:06:01.377Z,6.90
2023-11-28T16:08:36.494Z,6.80
2023-11-28T16:11:28.151Z,7.15
2023-11-28T16:13:55.957Z,7.35
2023-11-28T16:19:46.654Z,9.38
2023-11-28T16:22:38.922Z,10.20
2023-11-28T16:25:10.553Z,9.43
2023-11-28T16:27:40.202Z,8.30
2023-11-28T16:30:17.435Z,6.53
2023-11-28T16:32:50.184Z,7.70
2023-11-28T16:36:08.802Z,7.13
2023-11-28T16:38:42.993Z,5.93
2023-11-28T16:41:13.194Z,6.25
2023-11-28T16:43:41.598Z,6.25
2023-11-28T16:46:09.866Z,6.10
2023-11-28T16:48:41.068Z,5.93
2023-11-28T16:51:15.976Z,5.03
2023-11-28T16:54:09.507Z,5.35
2023-11-28T16:56:38.561Z,5.00
2023-11-28T17:06:44.592Z,6.35
2023-11-28T17:09:11.920Z,5.20
2023-11-28T17:11:40.625Z,5.68
2023-11-28T17:14:07.552Z,5.53
2023-11-28T17:16:41.968Z,5.10
2023-11-28T17:19:18.808Z,6.55
2023-11-28T17:21:48.456Z,5.63
2023-11-28T17:24:20.633Z,6.25
2023-11-28T17:26:55.144Z,6.03
2023-11-28T17:29:41.184Z,9.35
2023-11-28T17:32:20.366Z,8.52
2023-11-28T17:34:51.587Z,33.58
2023-11-28T17:37:38.076Z,36.88
2023-11-28T17:40:11.569Z,21.45
2023-11-28T17:43:10.739Z,23.85
2023-11-28T17:45:54.170Z,20.63
2023-11-28T17:48:24.412Z,17.40
2023-11-28T17:51:11.708Z,18.00
2023-11-28T17:53:57.975Z,17.15
2023-11-28T17:56:40.872Z,17.95
2023-11-28T17:59:31.841Z,16.70
2023-11-28T18:02:04.353Z,13.13
2023-11-28T18:04:38.718Z,14.20
2023-11-28T18:07:36.929Z,13.55
2023-11-28T18:13:20.760Z,8.85
2023-11-28T18:16:00.399Z,8.23
2023-11-28T18:18:33.173Z,6.70
2023-11-28T18:21:15.037Z,6.57
2023-11-28T18:23:49.028Z,6.45
2023-11-28T18:26:16.047Z,6.75
2023-11-28T18:28:45.343Z,7.85
2023-11-28T18:31:14.572Z,7.70
2023-11-28T18:33:41.743Z,9.27
2023-11-28T18:36:09.952Z,8.77
2023-11-28T18:38:42.776Z,8.63
2023-11-28T18:41:15.502Z,8.90
2023-11-28T18:43:44.946Z,8.70
2023-11-28T18:46:25.530Z,6.28
2023-11-28T18:48:55.280Z,6.55
2023-11-28T18:51:22.405Z,6.00
2023-11-28T18:53:52.412Z,5.85
2023-11-28T18:56:40.602Z,4.38
2023-11-28T18:59:30.668Z,5.60
2023-11-28T19:02:03.053Z,5.28
2023-11-28T19:04:30.902Z,5.55
2023-11-28T19:07:03.210Z,5.03
2023-11-28T19:09:34.858Z,5.30
2023-11-28T19:12:12.932Z,5.93
2023-11-28T19:14:39.736Z,4.78
2023-11-28T19:17:15.890Z,5.32
2023-11-28T23:23:29.594Z,5.68
2023-11-28T23:49:34.096Z,5.80
2023-11-28T23:52:59.019Z,5.95
